sensor_id;sensor_type;location;lat;lon;timestamp;P1;durP1;ratioP1;P2;durP2;ratioP2
60076;SDS011;45950;45.208;20.374;2024-03-23T00:55:14;39.80;;;25.35;;
60076;SDS011;45950;45.208;20.374;2024-03-23T00:57:40;37.92;;;26.08;;
60076;SDS011;45950;45.208;20.374;2024-03-23T01:00:06;46.40;;;28.02;;
60076;SDS011;45950;45.208;20.374;2024-03-23T01:02:35;37.20;;;24.70;;
60076;SDS011;45950;45.208;20.374;2024-03-23T01:05:02;36.72;;;24.60;;
60076;SDS011;45950;45.208;20.374;2024-03-23T01:07:28;41.00;;;26.48;;
60076;SDS011;45950;45.208;20.374;2024-03-23T01:09:54;40.55;;;26.52;;
60076;SDS011;45950;45.208;20.374;2024-03-23T01:12:22;44.13;;;29.52;;
60076;SDS011;45950;45.208;20.374;2024-03-23T01:14:48;41.85;;;27.88;;
60076;SDS011;45950;45.208;20.374;2024-03-23T01:17:14;42.58;;;29.20;;
60076;SDS011;45950;45.208;20.374;2024-03-23T01:19:40;43.00;;;28.10;;
60076;SDS011;45950;45.208;20.374;2024-03-23T01:22:07;40.08;;;27.30;;
60076;SDS011;45950;45.208;20.374;2024-03-23T01:24:35;43.42;;;26.98;;
60076;SDS011;45950;45.208;20.374;2024-03-23T01:27:01;42.50;;;26.92;;
60076;SDS011;45950;45.208;20.374;2024-03-23T01:29:28;47.00;;;28.88;;
60076;SDS011;45950;45.208;20.374;2024-03-23T01:31:55;46.20;;;29.23;;
60076;SDS011;45950;45.208;20.374;2024-03-23T01:34:21;45.08;;;29.55;;
60076;SDS011;45950;45.208;20.374;2024-03-23T01:36:48;43.15;;;29.92;;
60076;SDS011;45950;45.208;20.374;2024-03-23T01:39:13;44.28;;;28.85;;
60076;SDS011;45950;45.208;20.374;2024-03-23T01:41:40;42.13;;;29.20;;
60076;SDS011;45950;45.208;20.374;2024-03-23T01:44:07;45.25;;;30.27;;
60076;SDS011;45950;45.208;20.374;2024-03-23T01:46:35;48.13;;;29.35;;
60076;SDS011;45950;45.208;20.374;2024-03-23T01:49:02;44.80;;;28.92;;
60076;SDS011;45950;45.208;20.374;2024-03-23T01:51:28;45.03;;;30.30;;
60076;SDS011;45950;45.208;20.374;2024-03-23T01:53:54;48.70;;;32.15;;
60076;SDS011;45950;45.208;20.374;2024-03-23T01:56:22;44.58;;;30.52;;
60076;SDS011;45950;45.208;20.374;2024-03-23T01:58:48;47.05;;;28.48;;
60076;SDS011;45950;45.208;20.374;2024-03-23T02:01:15;42.85;;;28.17;;
60076;SDS011;45950;45.208;20.374;2024-03-23T02:03:42;41.90;;;28.17;;
60076;SDS011;45950;45.208;20.374;2024-03-23T02:06:08;43.15;;;28.50;;
60076;SDS011;45950;45.208;20.374;2024-03-23T02:08:34;41.83;;;28.15;;
60076;SDS011;45950;45.208;20.374;2024-03-23T02:11:00;46.22;;;28.15;;
60076;SDS011;45950;45.208;20.374;2024-03-23T02:13:26;38.53;;;26.52;;
60076;SDS011;45950;45.208;20.374;2024-03-23T02:15:53;41.35;;;27.15;;
60076;SDS011;45950;45.208;20.374;2024-03-23T02:18:18;42.05;;;27.38;;
60076;SDS011;45950;45.208;20.374;2024-03-23T02:20:46;39.33;;;25.90;;
60076;SDS011;45950;45.208;20.374;2024-03-23T02:23:16;42.28;;;28.60;;
60076;SDS011;45950;45.208;20.374;2024-03-23T02:28:34;42.05;;;29.15;;
60076;SDS011;45950;45.208;20.374;2024-03-23T02:31:00;43.35;;;28.33;;
60076;SDS011;45950;45.208;20.374;2024-03-23T02:33:27;44.53;;;27.95;;
60076;SDS011;45950;45.208;20.374;2024-03-23T02:38:58;43.75;;;28.33;;
60076;SDS011;45950;45.208;20.374;2024-03-23T02:41:24;42.70;;;27.77;;
60076;SDS011;45950;45.208;20.374;2024-03-23T02:43:50;43.45;;;29.05;;
60076;SDS011;45950;45.208;20.374;2024-03-23T02:46:25;43.97;;;28.70;;
60076;SDS011;45950;45.208;20.374;2024-03-23T02:48:51;38.38;;;24.77;;
60076;SDS011;45950;45.208;20.374;2024-03-23T02:51:18;52.80;;;28.98;;
60076;SDS011;45950;45.208;20.374;2024-03-23T02:53:43;42.78;;;28.30;;
60076;SDS011;45950;45.208;20.374;2024-03-23T02:56:11;44.40;;;28.00;;
60076;SDS011;45950;45.208;20.374;2024-03-23T02:58:41;47.95;;;29.70;;
60076;SDS011;45950;45.208;20.374;2024-03-23T03:01:07;49.45;;;31.17;;
60076;SDS011;45950;45.208;20.374;2024-03-23T03:03:33;43.75;;;26.90;;
60076;SDS011;45950;45.208;20.374;2024-03-23T03:05:59;52.83;;;32.53;;
60076;SDS011;45950;45.208;20.374;2024-03-23T03:08:25;45.88;;;31.50;;
60076;SDS011;45950;45.208;20.374;2024-03-23T03:10:51;46.15;;;30.00;;
60076;SDS011;45950;45.208;20.374;2024-03-23T03:13:19;49.63;;;30.80;;
60076;SDS011;45950;45.208;20.374;2024-03-23T03:15:45;43.17;;;28.27;;
60076;SDS011;45950;45.208;20.374;2024-03-23T03:18:11;49.45;;;29.45;;
60076;SDS011;45950;45.208;20.374;2024-03-23T03:20:37;46.50;;;29.67;;
60076;SDS011;45950;45.208;20.374;2024-03-23T03:23:04;44.78;;;29.13;;
60076;SDS011;45950;45.208;20.374;2024-03-23T03:25:30;39.25;;;27.35;;
60076;SDS011;45950;45.208;20.374;2024-03-23T03:27:56;50.13;;;30.80;;
60076;SDS011;45950;45.208;20.374;2024-03-23T03:30:23;46.88;;;29.77;;
60076;SDS011;45950;45.208;20.374;2024-03-23T03:32:56;49.03;;;31.23;;
60076;SDS011;45950;45.208;20.374;2024-03-23T03:35:22;47.88;;;30.52;;
60076;SDS011;45950;45.208;20.374;2024-03-23T03:37:48;56.08;;;32.95;;
60076;SDS011;45950;45.208;20.374;2024-03-23T03:40:18;48.88;;;31.13;;
60076;SDS011;45950;45.208;20.374;2024-03-23T03:42:45;46.88;;;30.25;;
60076;SDS011;45950;45.208;20.374;2024-03-23T03:45:11;44.88;;;29.73;;
60076;SDS011;45950;45.208;20.374;2024-03-23T03:47:38;49.10;;;30.73;;
60076;SDS011;45950;45.208;20.374;2024-03-23T03:50:05;42.95;;;29.27;;
60076;SDS011;45950;45.208;20.374;2024-03-23T03:52:31;47.42;;;30.45;;
60076;SDS011;45950;45.208;20.374;2024-03-23T03:55:00;47.75;;;31.63;;
60076;SDS011;45950;45.208;20.374;2024-03-23T03:57:29;44.58;;;30.88;;
60076;SDS011;45950;45.208;20.374;2024-03-23T03:59:55;47.70;;;30.42;;
60076;SDS011;45950;45.208;20.374;2024-03-23T04:02:21;48.42;;;31.40;;
60076;SDS011;45950;45.208;20.374;2024-03-23T04:04:49;50.55;;;32.70;;
60076;SDS011;45950;45.208;20.374;2024-03-23T04:07:15;47.75;;;32.05;;
60076;SDS011;45950;45.208;20.374;2024-03-23T04:09:42;52.63;;;33.63;;
60076;SDS011;45950;45.208;20.374;2024-03-23T04:12:08;58.42;;;36.08;;
60076;SDS011;45950;45.208;20.374;2024-03-23T04:14:35;65.05;;;36.72;;
60076;SDS011;45950;45.208;20.374;2024-03-23T04:17:00;62.10;;;36.05;;
60076;SDS011;45950;45.208;20.374;2024-03-23T04:19:27;69.47;;;40.45;;
60076;SDS011;45950;45.208;20.374;2024-03-23T04:21:55;73.20;;;40.70;;
60076;SDS011;45950;45.208;20.374;2024-03-23T04:24:21;77.82;;;43.03;;
60076;SDS011;45950;45.208;20.374;2024-03-23T04:26:47;68.57;;;41.97;;
60076;SDS011;45950;45.208;20.374;2024-03-23T04:29:14;69.18;;;41.60;;
60076;SDS011;45950;45.208;20.374;2024-03-23T04:31:39;65.45;;;39.28;;
60076;SDS011;45950;45.208;20.374;2024-03-23T04:34:11;67.63;;;41.33;;
60076;SDS011;45950;45.208;20.374;2024-03-23T04:36:37;67.50;;;40.97;;
60076;SDS011;45950;45.208;20.374;2024-03-23T04:39:05;64.45;;;39.75;;
60076;SDS011;45950;45.208;20.374;2024-03-23T04:41:33;62.30;;;39.05;;
60076;SDS011;45950;45.208;20.374;2024-03-23T04:44:00;63.42;;;38.25;;
60076;SDS011;45950;45.208;20.374;2024-03-23T04:46:27;67.43;;;39.63;;
60076;SDS011;45950;45.208;20.374;2024-03-23T04:48:53;68.68;;;39.58;;
60076;SDS011;45950;45.208;20.374;2024-03-23T04:51:21;62.40;;;36.47;;
60076;SDS011;45950;45.208;20.374;2024-03-23T04:53:48;60.08;;;37.92;;
60076;SDS011;45950;45.208;20.374;2024-03-23T04:56:16;61.38;;;34.70;;
60076;SDS011;45950;45.208;20.374;2024-03-23T04:58:43;59.22;;;35.10;;
60076;SDS011;45950;45.208;20.374;2024-03-23T05:01:09;65.57;;;35.17;;
60076;SDS011;45950;45.208;20.374;2024-03-23T05:03:35;64.05;;;38.50;;
60076;SDS011;45950;45.208;20.374;2024-03-23T05:06:01;58.85;;;35.70;;
60076;SDS011;45950;45.208;20.374;2024-03-23T05:08:28;66.13;;;37.95;;
60076;SDS011;45950;45.208;20.374;2024-03-23T05:11:05;54.70;;;33.85;;
60076;SDS011;45950;45.208;20.374;2024-03-23T05:13:33;55.58;;;32.85;;
60076;SDS011;45950;45.208;20.374;2024-03-23T05:16:00;49.92;;;32.72;;
60076;SDS011;45950;45.208;20.374;2024-03-23T05:18:25;55.25;;;33.92;;
60076;SDS011;45950;45.208;20.374;2024-03-23T05:20:55;56.45;;;33.05;;
60076;SDS011;45950;45.208;20.374;2024-03-23T05:23:21;55.95;;;34.03;;
60076;SDS011;45950;45.208;20.374;2024-03-23T05:25:48;54.90;;;30.73;;
60076;SDS011;45950;45.208;20.374;2024-03-23T05:28:13;53.70;;;32.67;;
60076;SDS011;45950;45.208;20.374;2024-03-23T05:30:41;55.17;;;32.35;;
60076;SDS011;45950;45.208;20.374;2024-03-23T05:35:58;52.63;;;33.38;;
60076;SDS011;45950;45.208;20.374;2024-03-23T05:38:24;51.20;;;32.67;;
60076;SDS011;45950;45.208;20.374;2024-03-23T05:40:54;66.93;;;39.45;;
60076;SDS011;45950;45.208;20.374;2024-03-23T05:43:20;61.67;;;35.92;;
60076;SDS011;45950;45.208;20.374;2024-03-23T05:46:00;61.42;;;35.97;;
60076;SDS011;45950;45.208;20.374;2024-03-23T05:48:26;53.28;;;32.10;;
60076;SDS011;45950;45.208;20.374;2024-03-23T05:50:53;49.13;;;32.10;;
60076;SDS011;45950;45.208;20.374;2024-03-23T05:53:19;53.08;;;30.83;;
60076;SDS011;45950;45.208;20.374;2024-03-23T05:55:46;45.40;;;30.10;;
60076;SDS011;45950;45.208;20.374;2024-03-23T05:58:14;55.22;;;32.95;;
60076;SDS011;45950;45.208;20.374;2024-03-23T06:00:40;46.75;;;29.80;;
60076;SDS011;45950;45.208;20.374;2024-03-23T06:03:09;53.10;;;32.88;;
60076;SDS011;45950;45.208;20.374;2024-03-23T06:05:38;48.45;;;31.67;;
60076;SDS011;45950;45.208;20.374;2024-03-23T06:08:04;56.50;;;36.05;;
60076;SDS011;45950;45.208;20.374;2024-03-23T06:10:31;52.67;;;32.95;;
60076;SDS011;45950;45.208;20.374;2024-03-23T06:12:57;47.80;;;31.67;;
60076;SDS011;45950;45.208;20.374;2024-03-23T06:15:24;48.28;;;29.95;;
60076;SDS011;45950;45.208;20.374;2024-03-23T06:17:53;47.58;;;30.95;;
60076;SDS011;45950;45.208;20.374;2024-03-23T06:20:21;54.65;;;32.22;;
60076;SDS011;45950;45.208;20.374;2024-03-23T06:22:47;46.50;;;30.58;;
60076;SDS011;45950;45.208;20.374;2024-03-23T06:28:08;44.53;;;30.40;;
60076;SDS011;45950;45.208;20.374;2024-03-23T06:30:34;53.97;;;33.83;;
60076;SDS011;45950;45.208;20.374;2024-03-23T06:33:00;48.72;;;32.97;;
60076;SDS011;45950;45.208;20.374;2024-03-23T06:35:28;49.72;;;31.30;;
60076;SDS011;45950;45.208;20.374;2024-03-23T06:37:53;47.72;;;31.58;;
60076;SDS011;45950;45.208;20.374;2024-03-23T06:40:27;47.90;;;31.33;;
60076;SDS011;45950;45.208;20.374;2024-03-23T06:42:52;44.17;;;29.42;;
60076;SDS011;45950;45.208;20.374;2024-03-23T06:45:19;44.63;;;29.60;;
60076;SDS011;45950;45.208;20.374;2024-03-23T06:48:00;45.08;;;31.23;;
60076;SDS011;45950;45.208;20.374;2024-03-23T06:50:28;46.28;;;30.33;;
60076;SDS011;45950;45.208;20.374;2024-03-23T06:52:54;58.35;;;34.17;;
60076;SDS011;45950;45.208;20.374;2024-03-23T06:55:21;52.28;;;32.90;;
60076;SDS011;45950;45.208;20.374;2024-03-23T06:57:47;56.15;;;35.30;;
60076;SDS011;45950;45.208;20.374;2024-03-23T07:00:14;53.83;;;32.13;;
60076;SDS011;45950;45.208;20.374;2024-03-23T07:05:45;49.30;;;31.92;;
60076;SDS011;45950;45.208;20.374;2024-03-23T07:08:12;39.90;;;27.17;;
60076;SDS011;45950;45.208;20.374;2024-03-23T07:10:39;45.10;;;28.75;;
60076;SDS011;45950;45.208;20.374;2024-03-23T07:13:05;40.85;;;27.90;;
60076;SDS011;45950;45.208;20.374;2024-03-23T07:15:31;41.17;;;25.05;;
60076;SDS011;45950;45.208;20.374;2024-03-23T07:17:57;36.67;;;23.60;;
60076;SDS011;45950;45.208;20.374;2024-03-23T07:20:23;43.15;;;26.15;;
60076;SDS011;45950;45.208;20.374;2024-03-23T07:22:51;39.67;;;25.75;;
60076;SDS011;45950;45.208;20.374;2024-03-23T07:25:17;34.50;;;23.55;;
60076;SDS011;45950;45.208;20.374;2024-03-23T07:27:43;36.90;;;22.77;;
60076;SDS011;45950;45.208;20.374;2024-03-23T07:30:09;33.85;;;22.92;;
60076;SDS011;45950;45.208;20.374;2024-03-23T07:32:36;32.30;;;22.38;;
60076;SDS011;45950;45.208;20.374;2024-03-23T07:37:48;30.73;;;19.60;;
60076;SDS011;45950;45.208;20.374;2024-03-23T07:40:15;33.08;;;19.08;;
60076;SDS011;45950;45.208;20.374;2024-03-23T07:42:59;28.45;;;20.15;;
60076;SDS011;45950;45.208;20.374;2024-03-23T07:45:24;30.42;;;20.48;;
60076;SDS011;45950;45.208;20.374;2024-03-23T07:47:51;29.58;;;19.95;;
60076;SDS011;45950;45.208;20.374;2024-03-23T07:50:18;26.38;;;17.98;;
60076;SDS011;45950;45.208;20.374;2024-03-23T07:52:44;29.23;;;20.67;;
60076;SDS011;45950;45.208;20.374;2024-03-23T07:55:10;32.15;;;21.45;;
60076;SDS011;45950;45.208;20.374;2024-03-23T07:57:42;28.60;;;19.70;;
60076;SDS011;45950;45.208;20.374;2024-03-23T08:00:09;26.67;;;16.73;;
60076;SDS011;45950;45.208;20.374;2024-03-23T08:02:35;24.77;;;16.35;;
60076;SDS011;45950;45.208;20.374;2024-03-23T08:05:01;23.35;;;15.45;;
60076;SDS011;45950;45.208;20.374;2024-03-23T08:07:27;29.55;;;17.63;;
60076;SDS011;45950;45.208;20.374;2024-03-23T08:09:54;27.80;;;16.60;;
60076;SDS011;45950;45.208;20.374;2024-03-23T08:12:19;24.63;;;16.20;;
60076;SDS011;45950;45.208;20.374;2024-03-23T08:14:47;28.75;;;16.85;;
60076;SDS011;45950;45.208;20.374;2024-03-23T08:17:13;23.52;;;15.90;;
60076;SDS011;45950;45.208;20.374;2024-03-23T08:19:39;24.10;;;17.38;;
60076;SDS011;45950;45.208;20.374;2024-03-23T08:22:05;26.05;;;16.13;;
60076;SDS011;45950;45.208;20.374;2024-03-23T08:24:31;22.50;;;15.25;;
60076;SDS011;45950;45.208;20.374;2024-03-23T08:26:57;21.75;;;14.35;;
60076;SDS011;45950;45.208;20.374;2024-03-23T08:29:24;24.63;;;14.82;;
60076;SDS011;45950;45.208;20.374;2024-03-23T08:31:51;26.92;;;15.50;;
60076;SDS011;45950;45.208;20.374;2024-03-23T08:34:17;24.38;;;15.32;;
60076;SDS011;45950;45.208;20.374;2024-03-23T08:36:45;23.88;;;16.58;;
60076;SDS011;45950;45.208;20.374;2024-03-23T08:39:11;25.00;;;14.35;;
60076;SDS011;45950;45.208;20.374;2024-03-23T08:41:37;21.75;;;13.27;;
60076;SDS011;45950;45.208;20.374;2024-03-23T08:44:03;24.08;;;17.88;;
60076;SDS011;45950;45.208;20.374;2024-03-23T08:46:29;22.20;;;15.10;;
60076;SDS011;45950;45.208;20.374;2024-03-23T08:48:57;24.65;;;15.55;;
60076;SDS011;45950;45.208;20.374;2024-03-23T08:51:22;22.38;;;15.18;;
60076;SDS011;45950;45.208;20.374;2024-03-23T08:53:49;24.58;;;16.02;;
60076;SDS011;45950;45.208;20.374;2024-03-23T08:56:15;22.38;;;15.48;;
60076;SDS011;45950;45.208;20.374;2024-03-23T08:58:42;23.77;;;16.63;;
60076;SDS011;45950;45.208;20.374;2024-03-23T09:01:08;28.05;;;17.30;;
60076;SDS011;45950;45.208;20.374;2024-03-23T09:03:35;24.02;;;16.48;;
60076;SDS011;45950;45.208;20.374;2024-03-23T09:06:06;26.42;;;16.20;;
60076;SDS011;45950;45.208;20.374;2024-03-23T09:08:32;24.95;;;16.90;;
60076;SDS011;45950;45.208;20.374;2024-03-23T09:11:03;23.05;;;15.88;;
60076;SDS011;45950;45.208;20.374;2024-03-23T09:13:31;24.00;;;15.88;;
60076;SDS011;45950;45.208;20.374;2024-03-23T09:15:56;19.70;;;13.82;;
60076;SDS011;45950;45.208;20.374;2024-03-23T09:18:23;19.20;;;13.02;;
60076;SDS011;45950;45.208;20.374;2024-03-23T09:20:49;22.42;;;13.77;;
60076;SDS011;45950;45.208;20.374;2024-03-23T09:23:17;19.83;;;13.57;;
60076;SDS011;45950;45.208;20.374;2024-03-23T09:25:50;17.50;;;11.68;;
60076;SDS011;45950;45.208;20.374;2024-03-23T09:28:17;18.20;;;11.93;;
60076;SDS011;45950;45.208;20.374;2024-03-23T09:30:43;17.92;;;12.13;;
60076;SDS011;45950;45.208;20.374;2024-03-23T09:33:09;17.88;;;11.98;;
60076;SDS011;45950;45.208;20.374;2024-03-23T09:35:36;17.08;;;11.43;;
60076;SDS011;45950;45.208;20.374;2024-03-23T09:38:03;17.58;;;10.45;;
60076;SDS011;45950;45.208;20.374;2024-03-23T09:40:30;19.15;;;11.70;;
60076;SDS011;45950;45.208;20.374;2024-03-23T09:42:56;17.33;;;11.40;;
60076;SDS011;45950;45.208;20.374;2024-03-23T09:45:26;18.45;;;13.32;;
60076;SDS011;45950;45.208;20.374;2024-03-23T09:47:53;18.05;;;13.07;;
60076;SDS011;45950;45.208;20.374;2024-03-23T09:50:19;18.58;;;12.90;;
60076;SDS011;45950;45.208;20.374;2024-03-23T09:52:46;23.85;;;14.10;;
60076;SDS011;45950;45.208;20.374;2024-03-23T09:55:12;18.42;;;10.77;;
60076;SDS011;45950;45.208;20.374;2024-03-23T09:57:47;15.90;;;11.18;;
60076;SDS011;45950;45.208;20.374;2024-03-23T10:00:13;19.23;;;14.30;;
60076;SDS011;45950;45.208;20.374;2024-03-23T10:02:40;18.10;;;11.85;;
60076;SDS011;45950;45.208;20.374;2024-03-23T10:05:13;15.55;;;11.07;;
60076;SDS011;45950;45.208;20.374;2024-03-23T10:07:46;16.88;;;11.48;;
60076;SDS011;45950;45.208;20.374;2024-03-23T10:10:12;19.55;;;11.90;;
60076;SDS011;45950;45.208;20.374;2024-03-23T10:12:43;23.25;;;15.23;;
60076;SDS011;45950;45.208;20.374;2024-03-23T10:15:11;19.55;;;13.70;;
60076;SDS011;45950;45.208;20.374;2024-03-23T10:17:41;17.48;;;11.68;;
60076;SDS011;45950;45.208;20.374;2024-03-23T10:20:09;15.10;;;10.75;;
60076;SDS011;45950;45.208;20.374;2024-03-23T10:22:37;15.40;;;10.18;;
60076;SDS011;45950;45.208;20.374;2024-03-23T10:25:06;13.93;;;10.18;;
60076;SDS011;45950;45.208;20.374;2024-03-23T10:27:34;13.88;;;10.02;;
60076;SDS011;45950;45.208;20.374;2024-03-23T10:30:08;12.70;;;8.38;;
60076;SDS011;45950;45.208;20.374;2024-03-23T10:32:45;12.50;;;7.97;;
60076;SDS011;45950;45.208;20.374;2024-03-23T10:35:14;14.95;;;8.85;;
60076;SDS011;45950;45.208;20.374;2024-03-23T10:37:41;10.90;;;7.22;;
60076;SDS011;45950;45.208;20.374;2024-03-23T10:40:07;13.90;;;8.32;;
60076;SDS011;45950;45.208;20.374;2024-03-23T10:42:37;11.98;;;8.32;;
60076;SDS011;45950;45.208;20.374;2024-03-23T10:45:04;12.30;;;7.95;;
60076;SDS011;45950;45.208;20.374;2024-03-23T10:47:31;13.75;;;6.57;;
60076;SDS011;45950;45.208;20.374;2024-03-23T10:49:58;10.32;;;7.60;;
60076;SDS011;45950;45.208;20.374;2024-03-23T10:52:25;12.18;;;8.07;;
60076;SDS011;45950;45.208;20.374;2024-03-23T10:54:51;9.85;;;6.45;;
60076;SDS011;45950;45.208;20.374;2024-03-23T10:57:20;14.55;;;8.85;;
60076;SDS011;45950;45.208;20.374;2024-03-23T10:59:46;14.13;;;7.45;;
60076;SDS011;45950;45.208;20.374;2024-03-23T11:02:18;17.20;;;7.07;;
60076;SDS011;45950;45.208;20.374;2024-03-23T11:04:44;18.13;;;11.70;;
60076;SDS011;45950;45.208;20.374;2024-03-23T11:07:30;12.85;;;6.70;;
60076;SDS011;45950;45.208;20.374;2024-03-23T11:09:56;12.15;;;7.43;;
60076;SDS011;45950;45.208;20.374;2024-03-23T11:12:27;8.93;;;6.22;;
60076;SDS011;45950;45.208;20.374;2024-03-23T11:14:53;9.45;;;5.15;;
60076;SDS011;45950;45.208;20.374;2024-03-23T11:17:20;5.88;;;4.95;;
60076;SDS011;45950;45.208;20.374;2024-03-23T11:19:52;9.00;;;5.47;;
60076;SDS011;45950;45.208;20.374;2024-03-23T11:25:01;11.07;;;5.97;;
60076;SDS011;45950;45.208;20.374;2024-03-23T11:27:28;8.63;;;5.20;;
60076;SDS011;45950;45.208;20.374;2024-03-23T11:29:53;6.55;;;5.38;;
60076;SDS011;45950;45.208;20.374;2024-03-23T11:32:20;7.32;;;5.70;;
60076;SDS011;45950;45.208;20.374;2024-03-23T11:34:46;9.40;;;6.03;;
60076;SDS011;45950;45.208;20.374;2024-03-23T11:37:13;7.15;;;5.13;;
60076;SDS011;45950;45.208;20.374;2024-03-23T11:39:39;7.18;;;5.47;;
60076;SDS011;45950;45.208;20.374;2024-03-23T11:42:07;8.50;;;5.28;;
60076;SDS011;45950;45.208;20.374;2024-03-23T11:44:32;6.88;;;4.63;;
60076;SDS011;45950;45.208;20.374;2024-03-23T11:47:07;7.72;;;4.57;;
60076;SDS011;45950;45.208;20.374;2024-03-23T11:49:32;9.20;;;4.80;;
60076;SDS011;45950;45.208;20.374;2024-03-23T11:52:05;8.48;;;5.10;;
60076;SDS011;45950;45.208;20.374;2024-03-23T11:54:31;5.53;;;4.30;;
60076;SDS011;45950;45.208;20.374;2024-03-23T11:56:58;6.65;;;4.10;;
60076;SDS011;45950;45.208;20.374;2024-03-23T11:59:31;6.43;;;4.47;;
60076;SDS011;45950;45.208;20.374;2024-03-23T12:01:58;6.18;;;4.18;;
60076;SDS011;45950;45.208;20.374;2024-03-23T12:04:25;5.10;;;4.00;;
60076;SDS011;45950;45.208;20.374;2024-03-23T12:09:33;5.78;;;4.00;;
60076;SDS011;45950;45.208;20.374;2024-03-23T12:12:05;6.95;;;3.70;;
60076;SDS011;45950;45.208;20.374;2024-03-23T12:14:32;5.88;;;3.63;;
60076;SDS011;45950;45.208;20.374;2024-03-23T12:17:06;5.85;;;4.00;;
60076;SDS011;45950;45.208;20.374;2024-03-23T12:19:32;4.80;;;3.42;;
60076;SDS011;45950;45.208;20.374;2024-03-23T12:21:59;6.15;;;3.75;;
60076;SDS011;45950;45.208;20.374;2024-03-23T12:24:26;6.55;;;4.40;;
60076;SDS011;45950;45.208;20.374;2024-03-23T12:26:52;7.65;;;4.70;;
60076;SDS011;45950;45.208;20.374;2024-03-23T12:29:18;7.07;;;4.28;;
60076;SDS011;45950;45.208;20.374;2024-03-23T12:31:46;7.22;;;4.45;;
60076;SDS011;45950;45.208;20.374;2024-03-23T12:34:12;10.82;;;4.75;;
60076;SDS011;45950;45.208;20.374;2024-03-23T12:36:38;6.00;;;3.90;;
60076;SDS011;45950;45.208;20.374;2024-03-23T12:39:04;6.03;;;4.05;;
60076;SDS011;45950;45.208;20.374;2024-03-23T12:41:31;5.70;;;4.00;;
60076;SDS011;45950;45.208;20.374;2024-03-23T12:43:56;6.13;;;3.92;;
60076;SDS011;45950;45.208;20.374;2024-03-23T12:46:24;5.93;;;3.45;;
60076;SDS011;45950;45.208;20.374;2024-03-23T12:48:51;4.97;;;3.53;;
60076;SDS011;45950;45.208;20.374;2024-03-23T12:51:17;8.93;;;4.72;;
60076;SDS011;45950;45.208;20.374;2024-03-23T12:53:43;8.75;;;4.07;;
60076;SDS011;45950;45.208;20.374;2024-03-23T12:56:11;9.82;;;5.85;;
60076;SDS011;45950;45.208;20.374;2024-03-23T12:58:37;6.93;;;4.13;;
60076;SDS011;45950;45.208;20.374;2024-03-23T13:01:04;4.97;;;3.88;;
60076;SDS011;45950;45.208;20.374;2024-03-23T13:03:31;6.95;;;4.28;;
60076;SDS011;45950;45.208;20.374;2024-03-23T13:05:59;6.13;;;3.72;;
60076;SDS011;45950;45.208;20.374;2024-03-23T13:08:25;5.05;;;3.13;;
60076;SDS011;45950;45.208;20.374;2024-03-23T13:13:54;4.13;;;3.10;;
60076;SDS011;45950;45.208;20.374;2024-03-23T13:16:21;5.32;;;3.95;;
60076;SDS011;45950;45.208;20.374;2024-03-23T13:18:46;6.32;;;5.15;;
60076;SDS011;45950;45.208;20.374;2024-03-23T13:21:14;4.60;;;3.30;;
60076;SDS011;45950;45.208;20.374;2024-03-23T13:23:41;3.15;;;2.40;;
60076;SDS011;45950;45.208;20.374;2024-03-23T13:26:11;3.58;;;2.60;;
60076;SDS011;45950;45.208;20.374;2024-03-23T13:28:36;4.00;;;2.55;;
60076;SDS011;45950;45.208;20.374;2024-03-23T13:31:03;5.63;;;3.03;;
60076;SDS011;45950;45.208;20.374;2024-03-23T13:33:29;3.83;;;2.63;;
60076;SDS011;45950;45.208;20.374;2024-03-23T13:35:57;3.40;;;2.80;;
60076;SDS011;45950;45.208;20.374;2024-03-23T13:38:24;4.15;;;3.15;;
60076;SDS011;45950;45.208;20.374;2024-03-23T13:40:52;5.72;;;2.97;;
60076;SDS011;45950;45.208;20.374;2024-03-23T13:43:18;5.68;;;3.00;;
60076;SDS011;45950;45.208;20.374;2024-03-23T13:45:45;4.63;;;2.65;;
60076;SDS011;45950;45.208;20.374;2024-03-23T13:48:11;4.80;;;2.65;;
60076;SDS011;45950;45.208;20.374;2024-03-23T13:50:37;5.55;;;2.80;;
60076;SDS011;45950;45.208;20.374;2024-03-23T13:53:03;4.03;;;2.72;;
60076;SDS011;45950;45.208;20.374;2024-03-23T13:55:32;4.72;;;2.95;;
60076;SDS011;45950;45.208;20.374;2024-03-23T13:58:03;4.80;;;2.80;;
60076;SDS011;45950;45.208;20.374;2024-03-23T14:00:30;11.90;;;3.00;;
60076;SDS011;45950;45.208;20.374;2024-03-23T14:02:57;5.70;;;2.80;;
60076;SDS011;45950;45.208;20.374;2024-03-23T14:05:24;6.07;;;2.95;;
60076;SDS011;45950;45.208;20.374;2024-03-23T14:07:50;5.20;;;2.60;;
60076;SDS011;45950;45.208;20.374;2024-03-23T14:10:17;4.03;;;2.63;;
60076;SDS011;45950;45.208;20.374;2024-03-23T14:12:44;4.43;;;3.05;;
60076;SDS011;45950;45.208;20.374;2024-03-23T14:15:10;3.92;;;3.08;;
60076;SDS011;45950;45.208;20.374;2024-03-23T14:17:36;4.68;;;3.15;;
60076;SDS011;45950;45.208;20.374;2024-03-23T14:20:04;4.07;;;2.90;;
60076;SDS011;45950;45.208;20.374;2024-03-23T14:22:30;4.75;;;2.60;;
60076;SDS011;45950;45.208;20.374;2024-03-23T14:24:59;3.72;;;2.50;;
60076;SDS011;45950;45.208;20.374;2024-03-23T14:27:28;3.05;;;2.53;;
60076;SDS011;45950;45.208;20.374;2024-03-23T14:29:56;5.13;;;2.45;;
60076;SDS011;45950;45.208;20.374;2024-03-23T14:35:14;3.67;;;3.17;;
60076;SDS011;45950;45.208;20.374;2024-03-23T14:37:39;4.10;;;2.58;;
60076;SDS011;45950;45.208;20.374;2024-03-23T14:40:07;4.80;;;2.95;;
60076;SDS011;45950;45.208;20.374;2024-03-23T14:42:33;4.30;;;2.85;;
60076;SDS011;45950;45.208;20.374;2024-03-23T14:45:01;4.38;;;3.22;;
60076;SDS011;45950;45.208;20.374;2024-03-23T14:47:26;5.05;;;3.30;;
60076;SDS011;45950;45.208;20.374;2024-03-23T14:49:53;6.32;;;2.80;;
60076;SDS011;45950;45.208;20.374;2024-03-23T14:52:32;10.35;;;3.08;;
60076;SDS011;45950;45.208;20.374;2024-03-23T14:54:58;6.35;;;3.25;;
60076;SDS011;45950;45.208;20.374;2024-03-23T14:57:37;4.30;;;3.03;;
60076;SDS011;45950;45.208;20.374;2024-03-23T15:00:07;62.80;;;38.53;;
60076;SDS011;45950;45.208;20.374;2024-03-23T15:02:33;26.13;;;21.40;;
60076;SDS011;45950;45.208;20.374;2024-03-23T15:05:06;30.52;;;22.67;;
60076;SDS011;45950;45.208;20.374;2024-03-23T15:07:34;17.67;;;15.60;;
60076;SDS011;45950;45.208;20.374;2024-03-23T15:10:01;14.52;;;12.57;;
60076;SDS011;45950;45.208;20.374;2024-03-23T15:12:29;23.95;;;19.48;;
60076;SDS011;45950;45.208;20.374;2024-03-23T15:14:55;9.00;;;7.40;;
60076;SDS011;45950;45.208;20.374;2024-03-23T15:17:22;18.10;;;16.27;;
60076;SDS011;45950;45.208;20.374;2024-03-23T15:19:49;8.27;;;7.47;;
60076;SDS011;45950;45.208;20.374;2024-03-23T15:22:15;6.40;;;4.85;;
60076;SDS011;45950;45.208;20.374;2024-03-23T15:24:41;7.20;;;5.78;;
60076;SDS011;45950;45.208;20.374;2024-03-23T15:27:08;7.20;;;5.28;;
60076;SDS011;45950;45.208;20.374;2024-03-23T15:29:34;6.65;;;4.28;;
60076;SDS011;45950;45.208;20.374;2024-03-23T15:32:01;7.63;;;6.82;;
60076;SDS011;45950;45.208;20.374;2024-03-23T15:34:28;5.22;;;4.72;;
60076;SDS011;45950;45.208;20.374;2024-03-23T15:36:55;7.30;;;5.53;;
60076;SDS011;45950;45.208;20.374;2024-03-23T15:39:20;7.20;;;4.82;;